Time;durP1;ratioP1;P1;durP2;ratioP2;P2;SDS_P1;SDS_P2;PMS_P1;PMS_P2;Temp;Humidity;BMP_temperature;BMP_pressure;BME280_temperature;BME280_humidity;BME280_pressure;Samples;Min_cycle;Max_cycle;Signal;HPM_P1;HPM_P2
2022/09/09 00:01:09;;;;;;;11.50;10.50;;;17.00;99.90;;;;;;5074192;28;20442;-50
2022/09/09 00:03:42;;;;;;;11.20;10.20;;;16.80;99.90;;;;;;5056435;28;20778;-51
2022/09/09 00:06:19;;;;;;;10.63;9.67;;;16.90;99.90;;;;;;5074361;28;20467;-51
2022/09/09 00:08:59;;;;;;;10.07;9.13;;;17.10;99.90;;;;;;5074076;28;20982;-52
2022/09/09 00:11:33;;;;;;;10.77;9.80;;;16.50;99.90;;;;;;5074101;28;20476;-51
2022/09/09 00:14:04;;;;;;;11.10;9.97;;;16.90;99.90;;;;;;5074181;28;20432;-51
2022/09/09 00:16:36;;;;;;;11.27;10.10;;;16.30;99.90;;;;;;5074029;28;20530;-51
2022/09/09 00:19:08;;;;;;;10.63;9.73;;;17.00;99.90;;;;;;5073714;28;20544;-52
2022/09/09 00:21:38;;;;;;;10.43;9.53;;;16.90;99.90;;;;;;5073999;28;20435;-51
2022/09/09 00:24:13;;;;;;;11.00;9.90;;;16.80;99.90;;;;;;5073989;28;20426;-51
2022/09/09 00:26:45;;;;;;;11.37;10.37;;;17.00;99.90;;;;;;5074017;28;20864;-51
2022/09/09 00:29:21;;;;;;;9.73;8.67;;;16.80;99.90;;;;;;5055318;28;20514;-51
2022/09/09 00:31:49;;;;;;;10.00;9.10;;;16.80;99.90;;;;;;5074062;28;20429;-52
2022/09/09 00:34:21;;;;;;;9.37;8.57;;;16.70;99.90;;;;;;5073621;28;20437;-52
2022/09/09 00:36:51;;;;;;;10.20;9.20;;;16.70;99.90;;;;;;5055851;28;20453;-51
2022/09/09 00:39:25;;;;;;;10.80;9.80;;;16.60;99.90;;;;;;5055388;28;20499;-51
2022/09/09 00:42:08;;;;;;;11.27;9.60;;;16.70;99.90;;;;;;5073734;28;20997;-51
2022/09/09 00:44:39;;;;;;;10.60;9.70;;;16.60;99.90;;;;;;5054168;28;20458;-51
2022/09/09 00:47:20;;;;;;;12.03;9.70;;;16.60;99.90;;;;;;5073522;28;20476;-51
2022/09/09 00:50:00;;;;;;;12.20;8.93;;;16.70;99.90;;;;;;5073103;28;20991;-51
2022/09/09 00:52:37;;;;;;;10.87;9.77;;;16.70;99.90;;;;;;5073070;28;20426;-50
2022/09/09 00:55:13;;;;;;;10.20;9.40;;;16.40;99.90;;;;;;5073049;28;20457;-50
2022/09/09 00:57:41;;;;;;;11.40;10.30;;;16.70;99.90;;;;;;5073122;28;20536;-49
2022/09/09 01:00:20;;;;;;;11.90;9.97;;;16.60;99.90;;;;;;5054818;28;20881;-50
2022/09/09 01:03:06;;;;;;;10.10;9.20;;;16.70;99.90;;;;;;5054949;28;20500;-51
2022/09/09 01:05:38;;;;;;;11.40;10.30;;;16.60;99.90;;;;;;5073148;28;20492;-50
2022/09/09 01:08:16;;;;;;;11.40;10.30;;;16.40;99.90;;;;;;5055007;28;20486;-52
2022/09/09 01:10:50;;;;;;;11.77;10.67;;;16.80;99.90;;;;;;5072950;28;20442;-51
2022/09/09 01:13:24;;;;;;;11.80;10.67;;;16.80;99.90;;;;;;5073223;28;20466;-52
2022/09/09 01:15:53;;;;;;;11.80;10.70;;;16.80;99.90;;;;;;5072945;28;20425;-52
2022/09/09 01:18:24;;;;;;;11.63;10.60;;;16.50;99.90;;;;;;5054800;28;20502;-52
2022/09/09 01:21:00;;;;;;;11.53;10.53;;;16.80;99.90;;;;;;5072967;28;20491;-51
2022/09/09 01:23:38;;;;;;;11.73;10.70;;;16.50;99.90;;;;;;5072868;28;20430;-52
2022/09/09 01:26:25;;;;;;;11.77;10.67;;;16.60;99.90;;;;;;5054756;28;20528;-52
2022/09/09 01:28:54;;;;;;;11.10;10.20;;;16.50;99.90;;;;;;5054108;28;20914;-51
2022/09/09 01:31:33;;;;;;;15.13;12.90;;;16.40;99.90;;;;;;5054746;28;20442;-52
2022/09/09 01:34:00;;;;;;;11.37;10.33;;;16.50;99.90;;;;;;5054799;28;20828;-51
2022/09/09 01:36:35;;;;;;;11.83;10.73;;;16.60;99.90;;;;;;5054505;28;20412;-51
2022/09/09 01:39:03;;;;;;;11.73;10.73;;;16.40;99.90;;;;;;5071938;28;20997;-51
2022/09/09 01:41:31;;;;;;;11.73;10.73;;;16.20;99.90;;;;;;5054420;28;20528;-51
2022/09/09 01:44:08;;;;;;;12.90;11.73;;;16.30;99.90;;;;;;5054660;28;20494;-51
2022/09/09 01:46:37;;;;;;;12.27;11.27;;;16.10;99.90;;;;;;5054805;28;20452;-51
2022/09/09 01:49:08;;;;;;;11.27;10.17;;;16.20;99.90;;;;;;5053951;28;20466;-51
2022/09/09 01:51:35;;;;;;;14.73;10.50;;;16.30;99.90;;;;;;5054243;28;20457;-50
2022/09/09 01:54:06;;;;;;;11.03;10.03;;;16.30;99.90;;;;;;5054419;28;20494;-50
2022/09/09 01:56:44;;;;;;;14.70;11.80;;;16.20;99.90;;;;;;5072123;28;20434;-51
2022/09/09 01:59:25;;;;;;;9.97;9.17;;;16.30;99.90;;;;;;5053984;28;21019;-51
2022/09/09 02:02:07;;;;;;;10.53;9.63;;;16.30;99.90;;;;;;5054340;28;20471;-51
2022/09/09 02:04:39;;;;;;;11.30;10.30;;;16.20;99.90;;;;;;5054323;28;20479;-50
2022/09/09 02:07:34;;;;;;;10.80;9.57;;;16.40;99.90;;;;;;5054405;28;21041;-51
2022/09/09 02:10:08;;;;;;;10.50;8.70;;;16.40;99.90;;;;;;5054070;28;20972;-51
2022/09/09 02:12:41;;;;;;;11.57;10.57;;;16.40;99.90;;;;;;5054561;28;20457;-51
2022/09/09 02:15:14;;;;;;;10.83;9.83;;;16.10;99.90;;;;;;5054496;28;20477;-51
2022/09/09 02:17:51;;;;;;;11.27;10.20;;;16.20;99.90;;;;;;5054285;28;20457;-52
2022/09/09 02:20:19;;;;;;;11.57;10.47;;;16.10;99.90;;;;;;5053852;28;20481;-52
2022/09/09 02:22:53;;;;;;;11.17;10.23;;;16.10;99.90;;;;;;5053869;28;20454;-52
2022/09/09 02:25:23;;;;;;;11.63;10.43;;;16.20;99.90;;;;;;5053794;28;20461;-52
2022/09/09 02:27:53;;;;;;;10.53;9.63;;;16.10;99.90;;;;;;5053521;28;20485;-51
2022/09/09 02:30:21;;;;;;;11.60;8.90;;;16.10;99.90;;;;;;5053527;28;20452;-52
2022/09/09 02:32:56;;;;;;;10.63;9.63;;;16.10;99.90;;;;;;5053631;28;20441;-52
2022/09/09 02:35:28;;;;;;;12.20;11.00;;;16.10;99.90;;;;;;5053700;28;20547;-52
2022/09/09 02:37:59;;;;;;;9.90;8.90;;;16.20;99.90;;;;;;5053430;28;20470;-52
2022/09/09 02:40:25;;;;;;;11.03;10.00;;;16.30;99.90;;;;;;5071037;28;20473;-52
2022/09/09 02:43:00;;;;;;;10.57;9.47;;;16.10;99.90;;;;;;5053521;28;20798;-52
2022/09/09 02:45:36;;;;;;;10.87;9.87;;;16.00;99.90;;;;;;5053459;28;20450;-51
2022/09/09 02:48:10;;;;;;;10.60;9.70;;;16.20;99.90;;;;;;5053684;28;20479;-51
2022/09/09 02:50:43;;;;;;;8.33;7.53;;;16.00;99.90;;;;;;5053073;28;20453;-52
2022/09/09 02:53:17;;;;;;;9.00;8.10;;;15.90;99.90;;;;;;5053396;28;20442;-51
2022/09/09 02:55:48;;;;;;;10.70;9.30;;;15.90;99.90;;;;;;5053515;28;20451;-51
2022/09/09 02:58:19;;;;;;;11.57;7.97;;;15.50;99.90;;;;;;5053223;28;20474;-51
2022/09/09 03:00:57;;;;;;;10.00;9.00;;;15.60;99.90;;;;;;5053453;28;20438;-51
2022/09/09 03:03:25;;;;;;;9.03;8.13;;;16.00;99.90;;;;;;5053256;28;20468;-51
2022/09/09 03:05:52;;;;;;;9.87;8.80;;;16.00;99.90;;;;;;5053337;28;20445;-51
2022/09/09 03:08:19;;;;;;;10.27;9.33;;;15.60;99.90;;;;;;5055868;28;20497;-52
2022/09/09 03:10:46;;;;;;;9.70;8.77;;;15.70;99.90;;;;;;5057033;28;20449;-51
2022/09/09 03:13:15;;;;;;;11.07;10.10;;;15.80;99.90;;;;;;5057227;28;20457;-52
2022/09/09 03:15:44;;;;;;;10.43;9.37;;;15.90;99.90;;;;;;5057320;28;20433;-51
2022/09/09 03:18:15;;;;;;;10.70;9.63;;;15.90;99.90;;;;;;5057035;28;20828;-51
2022/09/09 03:20:43;;;;;;;10.13;8.43;;;16.00;99.90;;;;;;5056506;28;20516;-51
2022/09/09 03:23:13;;;;;;;10.17;9.03;;;16.00;99.90;;;;;;5057099;28;20460;-51
2022/09/09 03:25:40;;;;;;;9.80;8.80;;;15.90;99.90;;;;;;5056910;28;20467;-52
2022/09/09 03:28:07;;;;;;;10.90;8.07;;;15.90;99.90;;;;;;5074956;28;20465;-51
2022/09/09 03:30:34;;;;;;;11.00;9.27;;;16.10;99.90;;;;;;5056839;28;20455;-51
2022/09/09 03:33:03;;;;;;;10.13;9.13;;;15.90;99.90;;;;;;5056912;28;20442;-51
2022/09/09 03:35:32;;;;;;;9.80;8.80;;;15.60;99.90;;;;;;5056993;28;20643;-52
2022/09/09 03:38:00;;;;;;;11.40;9.77;;;15.90;99.90;;;;;;5074886;28;20448;-52
2022/09/09 03:40:27;;;;;;;9.93;8.47;;;15.40;99.90;;;;;;5056423;28;20887;-51
2022/09/09 03:42:54;;;;;;;9.97;9.07;;;15.80;99.90;;;;;;5056841;28;20456;-51
2022/09/09 03:45:21;;;;;;;11.27;10.23;;;15.70;99.90;;;;;;5074641;28;20528;-52
2022/09/09 03:47:47;;;;;;;11.77;10.47;;;15.90;99.90;;;;;;5056686;28;20458;-52
2022/09/09 03:50:16;;;;;;;10.10;9.30;;;15.80;99.90;;;;;;5056410;28;20500;-52
2022/09/09 03:52:46;;;;;;;9.03;8.10;;;15.80;99.90;;;;;;5056619;28;20942;-54
2022/09/09 03:55:18;;;;;;;10.73;9.60;;;15.70;99.90;;;;;;5056738;28;20511;-51
2022/09/09 03:57:45;;;;;;;10.50;9.60;;;15.90;99.90;;;;;;5056323;28;20524;-51
2022/09/09 04:00:13;;;;;;;9.10;8.30;;;16.30;99.90;;;;;;5055893;28;20477;-51
2022/09/09 04:02:43;;;;;;;9.90;9.10;;;15.70;99.90;;;;;;5075158;28;20422;-52
2022/09/09 04:05:14;;;;;;;8.73;7.93;;;15.70;99.90;;;;;;5056618;28;20457;-51
2022/09/09 04:07:44;;;;;;;10.57;7.73;;;15.70;99.90;;;;;;5056561;28;20465;-52
2022/09/09 04:10:10;;;;;;;9.73;8.80;;;15.80;99.90;;;;;;5055980;28;20808;-55
2022/09/09 04:12:39;;;;;;;10.03;9.03;;;15.50;99.90;;;;;;5056602;28;20981;-52
2022/09/09 04:15:07;;;;;;;9.10;8.20;;;15.80;99.90;;;;;;5056281;28;20545;-51
2022/09/09 04:17:36;;;;;;;9.80;8.60;;;15.70;99.90;;;;;;5055908;28;20485;-52
2022/09/09 04:20:03;;;;;;;7.67;6.97;;;15.70;99.90;;;;;;5073560;28;21062;-52
2022/09/09 04:22:30;;;;;;;8.87;8.07;;;15.90;99.90;;;;;;5056169;28;20469;-51
2022/09/09 04:24:57;;;;;;;9.30;8.40;;;15.60;99.90;;;;;;5073878;28;20433;-51
2022/09/09 04:27:24;;;;;;;11.53;8.50;;;15.90;99.90;;;;;;5055596;28;20493;-51
2022/09/09 04:29:51;;;;;;;9.97;7.90;;;15.70;99.90;;;;;;5056116;28;20482;-49
2022/09/09 04:32:18;;;;;;;10.40;9.30;;;16.00;99.90;;;;;;5074060;28;20445;-49
2022/09/09 04:34:47;;;;;;;10.80;9.17;;;15.20;99.90;;;;;;5055676;28;20448;-50
2022/09/09 04:37:14;;;;;;;10.70;8.00;;;15.40;99.90;;;;;;5055635;28;20938;-49
2022/09/09 04:39:41;;;;;;;9.77;8.73;;;15.70;99.90;;;;;;5072958;28;20473;-49
2022/09/09 04:42:09;;;;;;;8.50;7.70;;;15.70;99.90;;;;;;5055774;28;20487;-49
2022/09/09 04:44:36;;;;;;;11.80;7.73;;;15.40;99.90;;;;;;5055358;28;20544;-49
2022/09/09 04:47:03;;;;;;;8.90;8.00;;;15.70;99.90;;;;;;5055809;28;20448;-50
2022/09/09 04:49:31;;;;;;;8.80;7.90;;;15.60;99.90;;;;;;5055235;28;20828;-49
2022/09/09 04:51:58;;;;;;;10.30;9.30;;;15.70;99.90;;;;;;5055295;28;20456;-49
2022/09/09 04:54:25;;;;;;;12.87;7.50;;;15.60;99.90;;;;;;5073178;28;20502;-49
2022/09/09 04:56:52;;;;;;;15.90;8.37;;;15.80;99.90;;;;;;5055538;28;20958;-49
2022/09/09 04:59:21;;;;;;;7.87;7.00;;;15.50;99.90;;;;;;5072954;28;20954;-49
2022/09/09 05:01:54;;;;;;;9.27;8.07;;;15.70;99.90;;;;;;5055466;28;20499;-49
2022/09/09 05:04:21;;;;;;;8.10;7.30;;;15.80;99.90;;;;;;5055495;28;20818;-49
2022/09/09 05:06:48;;;;;;;9.43;7.37;;;16.10;99.90;;;;;;5054994;28;20940;-48
2022/09/09 05:09:15;;;;;;;7.50;6.80;;;15.60;99.90;;;;;;5054647;28;20623;-48
2022/09/09 05:11:42;;;;;;;8.00;7.30;;;15.40;99.90;;;;;;5072871;28;20483;-49
2022/09/09 05:14:21;;;;;;;7.87;6.80;;;15.90;99.90;;;;;;5054445;28;20568;-49
2022/09/09 05:16:49;;;;;;;7.87;7.17;;;15.60;99.90;;;;;;5054847;28;20448;-49
2022/09/09 05:19:18;;;;;;;9.20;7.13;;;15.60;99.90;;;;;;5054243;28;20569;-49
2022/09/09 05:21:48;;;;;;;7.93;7.23;;;15.90;99.90;;;;;;5054526;28;20503;-49
2022/09/09 05:24:17;;;;;;;11.37;7.73;;;15.90;99.90;;;;;;5072548;28;20531;-49
2022/09/09 05:26:46;;;;;;;7.63;6.67;;;16.00;99.90;;;;;;5054650;28;20442;-49
2022/09/09 05:29:13;;;;;;;8.43;6.47;;;16.00;99.90;;;;;;5054272;28;20489;-49
2022/09/09 05:31:41;;;;;;;7.07;6.37;;;16.20;99.90;;;;;;5054366;28;20468;-49
2022/09/09 05:34:12;;;;;;;8.60;5.87;;;16.00;99.90;;;;;;5054211;28;20742;-50
2022/09/09 05:36:38;;;;;;;9.17;6.33;;;16.20;99.90;;;;;;5071593;28;20441;-50
2022/09/09 05:39:06;;;;;;;9.70;6.20;;;16.40;99.90;;;;;;5053648;28;20519;-49
2022/09/09 05:41:35;;;;;;;6.50;5.80;;;16.60;99.90;;;;;;5053692;28;20897;-49
2022/09/09 05:44:03;;;;;;;7.90;5.67;;;16.50;99.90;;;;;;5053933;28;20466;-48
2022/09/09 05:46:33;;;;;;;8.20;5.40;;;16.70;99.90;;;;;;5053979;28;20983;-49
2022/09/09 05:49:05;;;;;;;6.73;5.50;;;16.80;99.90;;;;;;5052397;28;20472;-49
2022/09/09 05:51:33;;;;;;;6.53;5.80;;;16.80;99.90;;;;;;5053959;28;20455;-50
2022/09/09 05:54:04;;;;;;;6.60;6.00;;;17.00;99.90;;;;;;5053902;28;20517;-50
2022/09/09 05:56:34;;;;;;;6.77;5.17;;;17.20;99.90;;;;;;5053770;28;20834;-49
2022/09/09 05:59:01;;;;;;;8.23;6.23;;;17.20;99.90;;;;;;5053138;28;21062;-48
2022/09/09 06:01:30;;;;;;;9.57;5.40;;;17.20;99.90;;;;;;5053684;28;20545;-49
2022/09/09 06:03:57;;;;;;;6.63;5.83;;;17.20;99.90;;;;;;5053448;28;20447;-50
2022/09/09 06:06:28;;;;;;;9.47;5.50;;;17.30;99.90;;;;;;5053523;28;20903;-50
2022/09/09 06:08:58;;;;;;;5.70;4.93;;;17.40;99.90;;;;;;5053366;28;20472;-48
2022/09/09 06:11:30;;;;;;;5.90;4.40;;;17.50;99.90;;;;;;5053399;28;20451;-49
2022/09/09 06:13:59;;;;;;;8.40;5.90;;;17.50;99.90;;;;;;5053005;28;20815;-49
2022/09/09 06:16:28;;;;;;;6.70;5.80;;;17.60;99.90;;;;;;5053833;28;20827;-48
2022/09/09 06:18:56;;;;;;;6.10;5.60;;;17.60;99.90;;;;;;5052925;28;20464;-49
2022/09/09 06:21:28;;;;;;;7.13;5.43;;;17.70;99.90;;;;;;5053632;28;20474;-49
2022/09/09 06:23:55;;;;;;;5.80;5.20;;;17.70;99.90;;;;;;5053564;28;21005;-49
2022/09/09 06:26:24;;;;;;;5.33;4.60;;;18.00;99.90;;;;;;5071316;28;20510;-49
2022/09/09 06:28:52;;;;;;;5.53;4.57;;;17.80;99.90;;;;;;5052567;28;20484;-50
2022/09/09 06:31:22;;;;;;;5.10;4.30;;;17.90;99.90;;;;;;5053140;28;20890;-50
2022/09/09 06:33:51;;;;;;;5.90;5.30;;;18.00;99.90;;;;;;5071345;28;20541;-48
2022/09/09 06:36:20;;;;;;;6.00;4.03;;;18.00;99.90;;;;;;5053146;28;20499;-49
2022/09/09 06:38:48;;;;;;;5.50;4.53;;;18.00;99.90;;;;;;5052407;28;20523;-49
2022/09/09 06:41:18;;;;;;;7.10;3.90;;;18.10;99.90;;;;;;5052897;28;20537;-49
2022/09/09 06:43:45;;;;;;;6.00;3.90;;;17.50;99.90;;;;;;5071395;28;20449;-49
2022/09/09 06:46:14;;;;;;;8.07;4.20;;;18.00;99.90;;;;;;5052971;28;20961;-49
2022/09/09 06:48:42;;;;;;;6.50;4.33;;;18.10;99.90;;;;;;5052887;28;20885;-48
2022/09/09 06:51:13;;;;;;;6.53;4.70;;;18.10;99.90;;;;;;5052863;28;20559;-48
2022/09/09 06:53:42;;;;;;;7.37;5.23;;;18.00;99.90;;;;;;5053260;28;20448;-48
2022/09/09 06:56:22;;;;;;;6.17;4.00;;;18.00;99.90;;;;;;5052807;28;20750;-49
2022/09/09 06:58:51;;;;;;;8.20;3.93;;;17.90;99.90;;;;;;5052493;28;20467;-49
2022/09/09 07:01:26;;;;;;;10.13;4.80;;;17.90;99.90;;;;;;5053358;28;20534;-49
2022/09/09 07:03:58;;;;;;;7.53;4.30;;;18.00;99.90;;;;;;5053332;28;20449;-49
2022/09/09 07:06:27;;;;;;;4.60;4.10;;;18.00;99.90;;;;;;5053536;28;20441;-49
2022/09/09 07:08:55;;;;;;;6.50;4.20;;;18.60;99.90;;;;;;5052676;28;20488;-49
2022/09/09 07:11:27;;;;;;;4.87;3.80;;;18.20;99.90;;;;;;5053184;28;20476;-49
2022/09/09 07:13:54;;;;;;;5.13;4.63;;;18.30;99.90;;;;;;5071649;28;20428;-50
2022/09/09 07:16:24;;;;;;;7.10;3.50;;;18.40;99.90;;;;;;5053196;28;21018;-50
2022/09/09 07:18:51;;;;;;;10.20;3.80;;;18.40;99.90;;;;;;5053798;28;20491;-50
2022/09/09 07:21:18;;;;;;;4.00;3.20;;;18.10;99.90;;;;;;5053226;28;20480;-49
2022/09/09 07:23:45;;;;;;;7.43;3.40;;;18.80;99.90;;;;;;5072216;28;20433;-50
2022/09/09 07:26:14;;;;;;;4.50;3.83;;;18.30;99.90;;;;;;5054026;28;20492;-50
2022/09/09 07:28:43;;;;;;;6.07;4.10;;;18.50;99.90;;;;;;5053529;28;20481;-50
2022/09/09 07:31:15;;;;;;;8.33;3.87;;;18.30;99.90;;;;;;5072513;28;20850;-49
2022/09/09 07:33:42;;;;;;;4.83;3.27;;;18.50;99.90;;;;;;5053238;28;20483;-49
2022/09/09 07:36:11;;;;;;;7.53;3.57;;;18.50;99.90;;;;;;5053102;28;20553;-49
2022/09/09 07:38:40;;;;;;;5.93;2.70;;;18.70;99.90;;;;;;5052884;28;20472;-50
2022/09/09 07:41:11;;;;;;;4.03;3.00;;;18.70;99.90;;;;;;5053219;28;20469;-49
2022/09/09 07:43:39;;;;;;;9.50;3.03;;;18.70;99.90;;;;;;5052688;28;20464;-49
2022/09/09 07:46:11;;;;;;;11.33;4.37;;;18.70;99.90;;;;;;5071708;28;20959;-51
2022/09/09 07:48:39;;;;;;;6.77;3.90;;;18.80;99.90;;;;;;5051987;28;20544;-50
2022/09/09 07:51:08;;;;;;;4.00;2.30;;;19.00;99.90;;;;;;5051966;28;20459;-50
2022/09/09 07:53:36;;;;;;;15.73;3.00;;;18.90;99.90;;;;;;5053253;28;20606;-50
2022/09/09 07:56:09;;;;;;;7.80;3.40;;;19.00;99.90;;;;;;5055926;28;20459;-50
2022/09/09 07:58:36;;;;;;;5.20;3.47;;;19.50;99.90;;;;;;5055261;28;20580;-50
2022/09/09 08:01:09;;;;;;;12.50;2.73;;;19.30;99.90;;;;;;5055978;28;20484;-50
2022/09/09 08:03:36;;;;;;;5.83;2.80;;;19.40;99.90;;;;;;5055874;28;20810;-50
2022/09/09 08:06:04;;;;;;;6.03;3.43;;;19.70;99.90;;;;;;5055878;28;20956;-50
2022/09/09 08:08:31;;;;;;;7.70;2.70;;;19.60;99.90;;;;;;5073279;28;20457;-49
2022/09/09 08:11:07;;;;;;;3.53;2.33;;;19.50;99.90;;;;;;5055587;28;21000;-49
2022/09/09 08:13:34;;;;;;;7.20;3.50;;;19.80;99.90;;;;;;5055994;28;20538;-49
2022/09/09 08:16:08;;;;;;;7.20;3.17;;;19.80;99.90;;;;;;5055346;28;20457;-49
2022/09/09 08:18:35;;;;;;;5.30;2.33;;;20.00;99.90;;;;;;5072963;28;20485;-49
2022/09/09 08:21:11;;;;;;;4.47;2.97;;;19.90;99.90;;;;;;5073289;28;20481;-49
2022/09/09 08:23:40;;;;;;;7.23;3.03;;;20.10;99.90;;;;;;5055334;28;20488;-49
2022/09/09 08:26:11;;;;;;;4.93;2.57;;;19.90;99.90;;;;;;5055304;28;20477;-49
2022/09/09 08:28:39;;;;;;;5.20;3.80;;;19.90;99.90;;;;;;5054842;28;21063;-49
2022/09/09 08:31:13;;;;;;;5.60;4.30;;;20.30;99.90;;;;;;5055134;28;20430;-49
2022/09/09 08:33:41;;;;;;;5.40;2.67;;;19.80;99.90;;;;;;5055380;28;20477;-49
2022/09/09 08:36:12;;;;;;;3.83;2.40;;;19.80;99.90;;;;;;5055337;28;20455;-49
2022/09/09 08:38:39;;;;;;;5.03;2.70;;;19.90;99.90;;;;;;5072956;28;20437;-49
2022/09/09 08:41:27;;;;;;;4.67;2.27;;;19.80;99.90;;;;;;5072811;28;20565;-49
2022/09/09 08:44:04;;;;;;;5.83;2.93;;;19.70;99.90;;;;;;5055070;28;20442;-50
2022/09/09 08:46:43;;;;;;;5.07;2.80;;;19.60;99.90;;;;;;5054894;28;20978;-49
2022/09/09 08:49:23;;;;;;;6.10;2.70;;;19.90;99.90;;;;;;5054432;28;20474;-49
2022/09/09 08:51:51;;;;;;;4.70;2.40;;;19.90;99.90;;;;;;5054880;28;20900;-49
2022/09/09 08:54:18;;;;;;;6.30;3.20;;;19.90;99.90;;;;;;5054434;28;20450;-49
2022/09/09 08:56:46;;;;;;;8.57;3.00;;;19.90;99.90;;;;;;5054615;28;20454;-49
2022/09/09 08:59:18;;;;;;;4.30;2.67;;;19.80;99.90;;;;;;5054129;28;21060;-49
2022/09/09 09:02:03;;;;;;;5.80;3.37;;;19.90;99.90;;;;;;5070756;28;20470;-49
2022/09/09 09:05:02;;;;;;;10.03;4.10;;;19.90;99.90;;;;;;5054167;28;20434;-49
2022/09/09 09:07:43;;;;;;;4.97;3.00;;;20.00;99.90;;;;;;5054578;28;20484;-49
2022/09/09 09:10:17;;;;;;;9.33;3.30;;;20.00;99.90;;;;;;5054327;28;20461;-49
2022/09/09 09:12:47;;;;;;;8.53;3.60;;;20.00;99.90;;;;;;5054707;28;20538;-50
2022/09/09 09:15:20;;;;;;;6.43;2.70;;;20.20;99.90;;;;;;5054715;28;20505;-50
2022/09/09 09:17:51;;;;;;;5.10;2.87;;;20.40;99.90;;;;;;5054366;28;20477;-50
2022/09/09 09:20:23;;;;;;;7.63;3.57;;;20.50;99.90;;;;;;5053411;28;20443;-50
2022/09/09 09:22:56;;;;;;;6.47;4.00;;;20.60;99.90;;;;;;5072269;28;20423;-49
2022/09/09 09:25:25;;;;;;;9.17;3.00;;;20.80;99.90;;;;;;5054520;28;20539;-50
2022/09/09 09:28:00;;;;;;;3.77;2.27;;;21.00;99.90;;;;;;5054281;28;20475;-49
2022/09/09 09:30:35;;;;;;;5.33;2.20;;;21.30;99.90;;;;;;5053859;28;20524;-50
2022/09/09 09:33:16;;;;;;;7.07;2.43;;;21.60;99.90;;;;;;5054445;28;20531;-50
2022/09/09 09:35:42;;;;;;;6.13;2.27;;;21.50;99.90;;;;;;5054075;28;20460;-50
2022/09/09 09:38:18;;;;;;;4.43;2.57;;;21.60;99.90;;;;;;5053409;28;20495;-49
2022/09/09 09:40:55;;;;;;;8.80;3.13;;;21.80;99.90;;;;;;5053928;28;20491;-49
2022/09/09 09:43:27;;;;;;;4.33;2.60;;;21.90;99.90;;;;;;5053848;28;20464;-49
2022/09/09 09:45:54;;;;;;;4.40;2.63;;;21.80;99.90;;;;;;5054062;28;20460;-50
2022/09/09 09:48:22;;;;;;;5.57;2.37;;;22.00;99.90;;;;;;5053739;28;20466;-49
2022/09/09 09:50:52;;;;;;;7.30;2.60;;;21.80;99.90;;;;;;5053354;28;20453;-49
2022/09/09 09:53:25;;;;;;;5.37;2.00;;;21.90;99.90;;;;;;5053646;28;20507;-49
2022/09/09 09:55:57;;;;;;;3.90;2.97;;;21.90;99.90;;;;;;5053975;28;20540;-49
2022/09/09 09:58:25;;;;;;;4.20;2.50;;;21.50;99.90;;;;;;5071658;28;20541;-49
2022/09/09 10:00:54;;;;;;;4.33;2.50;;;21.70;99.90;;;;;;5053261;28;20886;-49
2022/09/09 10:03:28;;;;;;;7.37;2.20;;;21.70;99.90;;;;;;5050215;28;20457;-49
2022/09/09 10:05:56;;;;;;;4.23;1.87;;;21.50;99.90;;;;;;5033853;28;20451;-49
2022/09/09 10:08:24;;;;;;;5.57;2.40;;;21.40;99.90;;;;;;5052941;28;20461;-49
2022/09/09 10:11:03;;;;;;;6.43;3.47;;;21.70;99.90;;;;;;5071503;28;20438;-49
2022/09/09 10:13:36;;;;;;;6.00;2.20;;;21.80;99.90;;;;;;5071310;28;20952;-50
2022/09/09 10:16:18;;;;;;;3.50;2.00;;;21.30;99.90;;;;;;5070848;28;20845;-49
2022/09/09 10:18:58;;;;;;;7.60;2.60;;;21.50;99.90;;;;;;5070788;28;20475;-48
2022/09/09 10:21:42;;;;;;;4.97;2.73;;;21.50;99.90;;;;;;5071081;28;20475;-50
2022/09/09 10:24:36;;;;;;;8.13;3.13;;;21.70;99.90;;;;;;5070947;28;20435;-50
2022/09/09 10:27:12;;;;;;;7.20;2.90;;;21.40;99.90;;;;;;5071149;28;20945;-49
2022/09/09 10:29:55;;;;;;;6.07;2.80;;;21.30;99.90;;;;;;5071180;28;20472;-48
2022/09/09 10:32:46;;;;;;;5.90;2.63;;;21.50;99.90;;;;;;5071318;28;20485;-50
2022/09/09 10:35:27;;;;;;;7.27;2.47;;;21.50;99.90;;;;;;5071154;28;20433;-49
2022/09/09 10:38:18;;;;;;;8.17;2.30;;;21.60;99.90;;;;;;5053039;28;20468;-49
2022/09/09 10:40:59;;;;;;;7.30;3.13;;;21.70;99.90;;;;;;5070304;28;20559;-49
2022/09/09 10:43:43;;;;;;;4.10;2.40;;;21.60;99.90;;;;;;5052986;28;20501;-50
2022/09/09 10:46:19;;;;;;;4.90;1.80;;;21.70;99.90;;;;;;5071252;28;20456;-49
2022/09/09 10:49:03;;;;;;;5.43;2.10;;;21.80;99.90;;;;;;5070341;28;20773;-50
2022/09/09 10:51:40;;;;;;;6.87;3.10;;;21.80;99.90;;;;;;5053011;28;20445;-49
2022/09/09 10:54:24;;;;;;;4.13;2.00;;;22.00;99.90;;;;;;5070911;28;20490;-49
2022/09/09 10:56:56;;;;;;;7.93;1.90;;;21.80;99.90;;;;;;5071095;28;20436;-49
2022/09/09 10:59:27;;;;;;;4.23;2.07;;;21.80;99.90;;;;;;5070807;28;20453;-49
2022/09/09 11:01:59;;;;;;;2.57;1.60;;;22.10;99.90;;;;;;5071035;28;20487;-49
2022/09/09 11:04:30;;;;;;;5.20;2.00;;;21.60;99.90;;;;;;5070807;28;20581;-50
2022/09/09 11:07:03;;;;;;;3.80;2.47;;;21.90;99.90;;;;;;5052985;28;20449;-48
2022/09/09 11:09:37;;;;;;;6.03;2.23;;;22.10;99.90;;;;;;5070252;28;20974;-50
2022/09/09 11:12:05;;;;;;;4.50;2.37;;;21.90;99.90;;;;;;5070795;28;20461;-50
2022/09/09 11:14:37;;;;;;;5.60;2.57;;;21.70;99.90;;;;;;5070525;28;20754;-49
2022/09/09 11:17:13;;;;;;;3.40;2.10;;;22.00;99.90;;;;;;5070415;28;20434;-50
2022/09/09 11:23:34;;;;;;;5.33;2.30;;;21.90;99.90;;;;;;5070331;28;20492;-49
2022/09/09 11:26:04;;;;;;;5.17;2.30;;;22.10;99.90;;;;;;5070583;28;20468;-50
2022/09/09 11:28:48;;;;;;;3.60;2.00;;;22.20;99.90;;;;;;5071470;28;20529;-50
2022/09/09 11:31:32;;;;;;;2.93;1.90;;;22.20;99.90;;;;;;5056746;28;20997;-49
2022/09/09 11:34:14;;;;;;;3.87;1.80;;;21.90;99.90;;;;;;5074754;28;20457;-48
2022/09/09 11:36:55;;;;;;;4.40;2.40;;;22.20;99.90;;;;;;5056318;28;20451;-49
2022/09/09 11:40:01;;;;;;;3.57;2.03;;;22.50;99.90;;;;;;5074019;28;20458;-49
2022/09/09 11:42:28;;;;;;;5.93;2.40;;;22.50;99.90;;;;;;5073950;28;20532;-49
2022/09/09 11:44:56;;;;;;;4.03;2.00;;;23.00;99.90;;;;;;5074027;28;20430;-49
2022/09/09 11:47:29;;;;;;;3.93;1.70;;;22.60;99.90;;;;;;5073802;28;20545;-50
2022/09/09 11:49:56;;;;;;;3.80;2.20;;;22.60;99.90;;;;;;5074205;28;20452;-49
2022/09/09 11:52:37;;;;;;;4.40;1.90;;;22.60;99.90;;;;;;5055952;28;20526;-48
2022/09/09 11:55:12;;;;;;;3.87;2.40;;;22.80;99.90;;;;;;5074326;28;20431;-51
2022/09/09 11:57:39;;;;;;;4.70;1.93;;;22.80;99.90;;;;;;5073524;28;20857;-50
2022/09/09 12:00:07;;;;;;;3.73;1.77;;;22.80;99.90;;;;;;5073816;28;20437;-49
2022/09/09 12:02:49;;;;;;;3.87;2.13;;;22.80;99.90;;;;;;5073663;28;20974;-50
2022/09/09 12:05:19;;;;;;;5.23;1.63;;;22.90;99.90;;;;;;5073495;28;20439;-50
2022/09/09 12:07:53;;;;;;;3.77;1.80;;;22.90;99.50;;;;;;5073536;28;20456;-49
2022/09/09 12:10:27;;;;;;;3.80;1.60;;;22.80;98.90;;;;;;5073339;28;20543;-49
2022/09/09 12:12:53;;;;;;;5.10;3.00;;;22.90;99.10;;;;;;5073480;28;20440;-49
2022/09/09 12:15:28;;;;;;;4.20;2.00;;;22.90;99.10;;;;;;5073475;28;20474;-50
2022/09/09 12:17:57;;;;;;;14.13;2.37;;;23.00;98.80;;;;;;5055589;28;20528;-48
2022/09/09 12:20:36;;;;;;;3.00;1.67;;;23.00;98.70;;;;;;5072554;28;20885;-50
2022/09/09 12:23:19;;;;;;;6.27;1.40;;;23.10;98.10;;;;;;5073270;28;20848;-51
2022/09/09 12:25:59;;;;;;;3.90;1.30;;;23.20;98.00;;;;;;5073602;28;20523;-48
2022/09/09 12:28:41;;;;;;;6.13;1.57;;;23.30;97.70;;;;;;5072670;28;20472;-50
2022/09/09 12:31:17;;;;;;;4.00;1.33;;;23.30;97.70;;;;;;5073595;28;20837;-49
2022/09/09 12:33:47;;;;;;;2.90;1.43;;;23.30;97.40;;;;;;5073037;28;20465;-50
2022/09/09 12:36:17;;;;;;;4.50;1.77;;;23.10;97.30;;;;;;5073196;28;20436;-49
2022/09/09 12:38:45;;;;;;;4.07;2.40;;;23.30;97.40;;;;;;5054504;28;20544;-49
2022/09/09 12:41:21;;;;;;;2.53;1.50;;;22.70;97.00;;;;;;5072977;28;20434;-49
2022/09/09 12:43:49;;;;;;;5.30;1.47;;;23.10;97.00;;;;;;5072664;28;20566;-50
2022/09/09 12:46:26;;;;;;;4.50;1.90;;;23.00;97.00;;;;;;5073101;28;20445;-50
2022/09/09 12:48:54;;;;;;;6.37;1.40;;;23.10;97.20;;;;;;5072819;28;20479;-49
2022/09/09 12:51:26;;;;;;;2.80;1.30;;;23.00;96.90;;;;;;5073321;28;20442;-48
2022/09/09 12:53:54;;;;;;;3.30;2.20;;;23.10;96.60;;;;;;5072945;28;20542;-48
2022/09/09 12:56:24;;;;;;;3.87;1.67;;;23.00;96.50;;;;;;5072773;28;20438;-49
2022/09/09 12:58:53;;;;;;;4.33;1.67;;;23.00;96.40;;;;;;5072564;28;20455;-49
2022/09/09 13:01:23;;;;;;;3.23;1.60;;;22.90;96.60;;;;;;5073171;28;20469;-48
2022/09/09 13:03:50;;;;;;;5.03;2.30;;;23.10;96.60;;;;;;5072471;28;20581;-49
2022/09/09 13:06:22;;;;;;;5.80;3.50;;;23.10;96.60;;;;;;5072199;28;20459;-50
2022/09/09 13:08:49;;;;;;;1.93;1.20;;;22.70;95.90;;;;;;5070974;28;20528;-51
2022/09/09 13:11:19;;;;;;;2.83;2.07;;;23.00;95.70;;;;;;5072408;28;20460;-50